createdAt,value
2018-03-28T00:02:15.178Z,17.27
2018-03-28T00:04:41.700Z,17.67
2018-03-28T00:07:08.106Z,17.63
2018-03-28T00:09:34.491Z,17.77
2018-03-28T00:12:00.865Z,15.47
2018-03-28T00:14:27.269Z,13.40
2018-03-28T00:16:53.709Z,17.63
2018-03-28T00:19:20.089Z,16.97
2018-03-28T00:21:46.493Z,17.90
2018-03-28T00:24:12.830Z,16.17
2018-03-28T00:26:39.182Z,14.70
2018-03-28T00:29:05.544Z,19.10
2018-03-28T00:31:31.921Z,16.03
2018-03-28T00:33:58.278Z,20.87
2018-03-28T00:36:24.722Z,18.03
2018-03-28T00:38:51.097Z,16.83
2018-03-28T00:41:17.558Z,17.23
2018-03-28T00:43:43.974Z,16.50
2018-03-28T00:46:10.389Z,16.20
2018-03-28T00:48:36.839Z,19.13
2018-03-28T01:04:29.882Z,16.53
2018-03-28T01:06:56.378Z,16.00
2018-03-28T01:09:22.762Z,20.47
2018-03-28T01:11:49.165Z,20.47
2018-03-28T01:14:15.618Z,19.87
2018-03-28T01:16:42.041Z,18.90
2018-03-28T01:19:08.478Z,21.07
2018-03-28T01:21:34.911Z,23.10
2018-03-28T01:24:01.298Z,19.30
2018-03-28T01:26:27.654Z,22.50
2018-03-28T01:28:54.032Z,21.20
2018-03-28T01:31:20.457Z,20.37
2018-03-28T01:33:46.849Z,22.00
2018-03-28T01:36:13.249Z,18.63
2018-03-28T01:38:39.653Z,19.87
2018-03-28T01:41:06.085Z,21.17
2018-03-28T01:43:32.507Z,22.97
2018-03-28T01:45:58.878Z,23.33
2018-03-28T01:48:25.291Z,28.37
2018-03-28T01:50:51.685Z,20.33
2018-03-28T01:53:18.076Z,19.17
2018-03-28T01:55:44.450Z,21.17
2018-03-28T01:58:10.837Z,18.47
2018-03-28T02:00:37.230Z,20.30
2018-03-28T02:03:03.690Z,20.67
2018-03-28T02:05:30.069Z,18.27
2018-03-28T02:07:56.454Z,21.33
2018-03-28T02:10:22.830Z,22.87
2018-03-28T02:12:49.245Z,19.07
2018-03-28T02:15:15.621Z,21.23
2018-03-28T02:17:41.981Z,20.00
2018-03-28T02:20:08.408Z,17.63
2018-03-28T02:22:34.785Z,18.07
2018-03-28T02:25:01.233Z,17.30
2018-03-28T02:27:27.621Z,17.33
2018-03-28T02:29:54.050Z,17.30
2018-03-28T02:32:20.439Z,16.70
2018-03-28T02:34:46.811Z,18.00
2018-03-28T02:37:13.242Z,17.30
2018-03-28T02:39:39.727Z,18.70
2018-03-28T02:42:06.129Z,19.03
2018-03-28T02:44:32.521Z,18.10
2018-03-28T02:46:58.971Z,18.37
2018-03-28T02:49:25.362Z,17.90
2018-03-28T02:51:51.822Z,19.33
2018-03-28T02:54:18.226Z,22.23
2018-03-28T02:56:44.582Z,17.77
2018-03-28T02:59:10.964Z,19.03
2018-03-28T03:01:37.377Z,22.20
2018-03-28T03:04:03.887Z,22.83
2018-03-28T03:06:30.306Z,25.23
2018-03-28T03:08:56.731Z,25.23
2018-03-28T03:11:23.153Z,27.07
2018-03-28T03:13:49.557Z,24.33
2018-03-28T03:16:16.053Z,23.97
2018-03-28T03:18:42.438Z,23.33
2018-03-28T03:21:08.797Z,26.23
2018-03-28T03:23:35.174Z,25.50
2018-03-28T03:26:01.558Z,24.50
2018-03-28T03:28:27.938Z,30.60
2018-03-28T03:30:54.368Z,35.37
2018-03-28T03:33:20.750Z,36.20
2018-03-28T03:35:47.107Z,35.80
2018-03-28T03:38:13.485Z,37.63
2018-03-28T03:40:39.834Z,42.17
2018-03-28T03:43:06.187Z,37.17
2018-03-28T03:45:32.534Z,35.63
2018-03-28T03:47:58.929Z,34.37
2018-03-28T03:50:25.317Z,28.53
2018-03-28T03:52:51.681Z,29.73
2018-03-28T03:55:18.057Z,31.13
2018-03-28T03:57:44.413Z,33.97
2018-03-28T04:00:10.869Z,33.67
2018-03-28T04:02:37.246Z,34.93
2018-03-28T04:05:03.646Z,34.50
2018-03-28T04:07:30.003Z,32.57
2018-03-28T04:09:56.377Z,35.30
2018-03-28T04:12:22.809Z,33.53
2018-03-28T04:14:49.163Z,41.43
2018-03-28T04:17:15.537Z,42.00
2018-03-28T04:19:41.969Z,44.80
2018-03-28T04:22:08.421Z,41.07
2018-03-28T04:24:34.838Z,44.60
2018-03-28T04:27:01.278Z,42.87
2018-03-28T04:29:27.701Z,42.17
2018-03-28T04:31:54.130Z,35.17
2018-03-28T04:34:20.478Z,36.23
2018-03-28T04:36:46.842Z,39.00
2018-03-28T04:39:13.245Z,42.97
2018-03-28T04:41:39.601Z,41.53
2018-03-28T04:44:05.989Z,35.80
2018-03-28T04:46:32.369Z,37.40
2018-03-28T04:48:58.776Z,35.60
2018-03-28T04:51:25.218Z,30.23
2018-03-28T04:53:51.665Z,38.57
2018-03-28T04:56:18.052Z,32.30
2018-03-28T04:58:44.514Z,34.13
2018-03-28T05:01:10.923Z,33.20
2018-03-28T05:03:37.317Z,33.73
2018-03-28T05:06:03.744Z,29.67
2018-03-28T05:08:30.129Z,30.30
2018-03-28T05:10:56.584Z,44.20
2018-03-28T05:13:22.993Z,45.60
2018-03-28T05:15:49.551Z,44.03
2018-03-28T05:18:15.954Z,49.17
2018-03-28T05:20:42.702Z,36.30
2018-03-28T05:23:09.178Z,39.57
2018-03-28T05:25:36.250Z,41.43
2018-03-28T05:28:02.745Z,34.57
2018-03-28T05:30:29.389Z,36.10
2018-03-28T05:32:55.907Z,34.13
2018-03-28T05:35:22.393Z,33.33
2018-03-28T05:37:48.920Z,37.37
2018-03-28T05:40:15.390Z,38.10
2018-03-28T05:42:41.793Z,43.97
2018-03-28T05:45:08.204Z,51.50
2018-03-28T05:47:34.686Z,66.20
2018-03-28T05:50:01.154Z,41.97
2018-03-28T05:52:32.076Z,34.57
2018-03-28T05:54:59.040Z,34.97
2018-03-28T05:57:25.510Z,39.27
2018-03-28T05:59:52.009Z,37.90
2018-03-28T06:02:18.462Z,35.33
2018-03-28T06:04:44.870Z,37.70
2018-03-28T06:07:11.318Z,33.90
2018-03-28T06:09:37.749Z,32.37
2018-03-28T06:12:04.212Z,35.53
2018-03-28T06:14:30.614Z,39.47
2018-03-28T06:16:57.051Z,34.07
2018-03-28T06:19:23.466Z,34.53
2018-03-28T06:21:49.921Z,47.87
2018-03-28T06:24:16.386Z,32.77
2018-03-28T06:26:42.934Z,29.37
2018-03-28T06:29:09.322Z,29.03
2018-03-28T06:31:35.697Z,33.37
2018-03-28T06:34:02.122Z,33.43
2018-03-28T06:36:28.621Z,30.00
2018-03-28T06:38:55.169Z,32.90
2018-03-28T06:41:21.540Z,26.27
2018-03-28T06:43:47.977Z,30.77
2018-03-28T06:46:14.397Z,31.87
2018-03-28T06:48:40.873Z,27.50
2018-03-28T06:51:07.462Z,28.03
2018-03-28T06:53:33.866Z,26.13
2018-03-28T06:56:00.270Z,29.63
2018-03-28T06:58:26.726Z,25.70
2018-03-28T07:00:53.178Z,24.23
2018-03-28T07:03:19.555Z,25.63
2018-03-28T07:05:46.038Z,28.03
2018-03-28T07:08:12.494Z,28.80
2018-03-28T07:10:38.870Z,27.20
2018-03-28T07:13:05.331Z,29.73
2018-03-28T07:15:31.709Z,33.87
2018-03-28T07:17:58.094Z,33.93
2018-03-28T07:20:24.551Z,36.40
2018-03-28T07:22:51.038Z,31.77
2018-03-28T07:25:17.498Z,32.20
2018-03-28T07:27:44.028Z,31.50
2018-03-28T07:30:10.487Z,40.97
2018-03-28T07:32:37.045Z,33.90
2018-03-28T07:35:03.601Z,31.40
2018-03-28T07:37:30.091Z,32.30
2018-03-28T07:39:56.628Z,35.97
2018-03-28T07:42:23.107Z,31.40
2018-03-28T07:44:49.626Z,30.50
2018-03-28T07:47:16.042Z,36.07
2018-03-28T07:49:42.466Z,30.47
2018-03-28T07:52:08.929Z,34.20
2018-03-28T07:54:35.358Z,36.37
2018-03-28T07:57:01.822Z,31.37
2018-03-28T07:59:28.227Z,30.33
2018-03-28T08:01:54.650Z,31.30
2018-03-28T08:04:21.006Z,27.17
2018-03-28T08:06:47.460Z,27.20
2018-03-28T08:09:13.990Z,30.00
2018-03-28T08:11:40.506Z,29.93
2018-03-28T08:14:06.953Z,31.43
2018-03-28T08:16:33.488Z,29.83
2018-03-28T08:18:59.857Z,26.73
2018-03-28T08:21:26.301Z,31.03
2018-03-28T08:23:52.765Z,28.70
2018-03-28T08:26:19.197Z,27.17
2018-03-28T08:28:45.624Z,29.60
2018-03-28T08:31:12.070Z,27.80
2018-03-28T08:33:38.501Z,34.47
2018-03-28T08:36:04.901Z,31.00
2018-03-28T08:38:31.309Z,29.40
2018-03-28T08:40:57.798Z,32.93
2018-03-28T08:43:24.238Z,33.30
2018-03-28T08:45:50.850Z,33.60
2018-03-28T08:48:17.417Z,32.43
2018-03-28T08:50:43.898Z,30.50
2018-03-28T08:53:10.350Z,33.33
2018-03-28T08:55:36.801Z,35.93
2018-03-28T08:58:03.234Z,31.20
2018-03-28T09:00:29.678Z,39.43
2018-03-28T09:02:56.232Z,39.97
2018-03-28T09:05:22.696Z,36.47
2018-03-28T09:07:49.162Z,34.20
2018-03-28T09:10:15.662Z,35.73
2018-03-28T09:12:42.174Z,42.23
2018-03-28T09:15:08.724Z,44.07
2018-03-28T09:17:35.161Z,38.13
2018-03-28T09:20:01.641Z,36.13
2018-03-28T09:22:28.159Z,33.87
2018-03-28T09:24:54.673Z,40.40
2018-03-28T09:27:21.205Z,46.53
2018-03-28T09:29:47.626Z,45.27
2018-03-28T09:32:14.373Z,43.87
2018-03-28T09:34:40.833Z,44.87
2018-03-28T09:37:07.318Z,35.80
2018-03-28T09:39:33.758Z,33.47
2018-03-28T09:42:00.122Z,38.17
2018-03-28T09:44:26.573Z,37.27
2018-03-28T09:46:54.848Z,34.03
2018-03-28T09:49:21.981Z,33.67
2018-03-28T09:51:48.577Z,31.97
2018-03-28T09:54:14.963Z,28.57
2018-03-28T09:56:41.442Z,30.93
2018-03-28T09:59:07.815Z,33.70
2018-03-28T10:01:34.290Z,33.50
2018-03-28T10:04:12.779Z,33.23
2018-03-28T10:06:40.061Z,37.43
2018-03-28T10:09:06.494Z,38.87
2018-03-28T10:11:33.066Z,35.30
2018-03-28T10:13:59.786Z,39.83
2018-03-28T10:16:26.513Z,35.60
2018-03-28T10:18:53.113Z,36.10
2018-03-28T10:21:19.541Z,36.90
2018-03-28T10:23:46.114Z,31.80
2018-03-28T10:26:12.770Z,32.47
2018-03-28T10:28:39.228Z,35.23
2018-03-28T10:31:05.717Z,36.40
2018-03-28T10:33:34.062Z,33.53
2018-03-28T10:36:00.522Z,36.97
2018-03-28T10:38:27.054Z,42.57
2018-03-28T10:40:53.474Z,39.40
2018-03-28T10:43:20.030Z,39.20
2018-03-28T10:45:46.451Z,42.00
2018-03-28T10:48:12.870Z,37.13
2018-03-28T10:50:39.373Z,38.60
2018-03-28T10:53:05.778Z,35.53
2018-03-28T10:55:32.246Z,38.50
2018-03-28T10:57:58.946Z,40.87
2018-03-28T11:00:25.339Z,38.43
2018-03-28T11:02:53.917Z,40.60
2018-03-28T11:05:23.708Z,36.93
2018-03-28T11:07:50.437Z,41.17
2018-03-28T11:10:16.890Z,41.93
2018-03-28T11:12:43.466Z,38.83
2018-03-28T11:15:09.873Z,38.57
2018-03-28T11:17:37.456Z,37.00
2018-03-28T11:20:03.969Z,39.33
2018-03-28T11:22:30.438Z,41.87
2018-03-28T11:24:56.938Z,51.50
2018-03-28T11:27:23.461Z,38.97
2018-03-28T11:29:49.957Z,44.57
2018-03-28T11:32:16.346Z,39.93
2018-03-28T11:34:42.932Z,38.70
2018-03-28T11:37:09.400Z,36.60
2018-03-28T11:39:35.991Z,40.07
2018-03-28T11:42:02.463Z,52.40
2018-03-28T11:44:28.917Z,54.27
2018-03-28T11:46:55.372Z,56.40
2018-03-28T11:49:21.814Z,52.63
2018-03-28T11:51:48.246Z,63.60
2018-03-28T11:54:14.695Z,52.17
2018-03-28T11:56:41.146Z,35.83
2018-03-28T11:59:07.643Z,35.93
2018-03-28T12:01:34.173Z,39.10
2018-03-28T12:04:00.659Z,38.10
2018-03-28T12:06:27.101Z,44.37
2018-03-28T12:08:53.538Z,38.03
2018-03-28T12:11:20.051Z,40.40
2018-03-28T12:13:46.449Z,34.33
2018-03-28T12:16:12.834Z,38.43
2018-03-28T12:18:39.366Z,33.57
2018-03-28T12:21:05.774Z,40.97
2018-03-28T12:23:32.283Z,34.63
2018-03-28T12:25:58.780Z,30.07
2018-03-28T12:28:27.095Z,26.30
2018-03-28T12:30:53.566Z,28.40
2018-03-28T12:33:23.060Z,31.53
2018-03-28T12:35:51.330Z,23.80
2018-03-28T12:38:21.566Z,24.17
2018-03-28T12:40:55.874Z,30.67
2018-03-28T12:43:32.065Z,20.83
2018-03-28T12:46:05.182Z,21.80
2018-03-28T12:48:34.289Z,23.53
2018-03-28T12:51:01.962Z,21.53
2018-03-28T12:53:30.164Z,26.37
2018-03-28T12:55:56.950Z,28.17
2018-03-28T12:58:23.474Z,26.13
2018-03-28T13:00:51.754Z,27.27
2018-03-28T13:03:18.290Z,24.77
2018-03-28T13:05:44.659Z,29.60
2018-03-28T13:08:11.113Z,25.77
2018-03-28T13:10:37.512Z,25.27
2018-03-28T13:13:17.986Z,24.27
2018-03-28T13:15:44.465Z,26.80
2018-03-28T13:18:11.012Z,20.17
2018-03-28T13:20:37.542Z,19.63
2018-03-28T13:23:03.946Z,21.97
2018-03-28T13:25:30.548Z,23.83
2018-03-28T13:27:56.949Z,23.70
2018-03-28T13:30:23.412Z,25.47
2018-03-28T13:32:49.884Z,25.97
2018-03-28T13:35:16.249Z,19.27
2018-03-28T13:37:42.764Z,23.00
2018-03-28T13:40:09.189Z,21.90
2018-03-28T13:42:35.626Z,17.20
2018-03-28T13:45:02.094Z,22.97
2018-03-28T13:47:28.517Z,49.90
2018-03-28T13:49:55.018Z,19.53
2018-03-28T13:52:21.545Z,19.67
2018-03-28T13:54:47.968Z,18.17
2018-03-28T13:57:14.377Z,19.67
2018-03-28T13:59:40.872Z,15.97
2018-03-28T14:02:07.333Z,20.80
2018-03-28T14:04:34.609Z,22.10
2018-03-28T14:07:07.009Z,19.73
2018-03-28T14:09:35.556Z,13.73
2018-03-28T14:12:05.561Z,16.25
2018-03-28T14:14:35.737Z,17.80
2018-03-28T14:17:02.334Z,23.37
2018-03-28T14:19:29.920Z,19.73
2018-03-28T14:21:56.308Z,17.77
2018-03-28T14:24:22.782Z,17.03
2018-03-28T14:26:49.362Z,18.97
2018-03-28T14:29:15.930Z,15.77
2018-03-28T14:31:42.409Z,17.93
2018-03-28T14:34:08.854Z,17.37
2018-03-28T14:36:35.344Z,13.57
2018-03-28T14:39:01.726Z,13.10
2018-03-28T14:41:28.481Z,12.50
2018-03-28T14:43:54.861Z,16.73
2018-03-28T14:46:21.350Z,15.63
2018-03-28T14:48:47.775Z,15.30
2018-03-28T14:51:14.194Z,11.10
2018-03-28T14:53:40.749Z,13.20
2018-03-28T14:56:07.233Z,18.37
2018-03-28T14:58:33.777Z,15.37
2018-03-28T15:01:00.228Z,15.27
2018-03-28T15:03:26.609Z,13.57
2018-03-28T15:05:53.016Z,18.47
2018-03-28T15:08:19.447Z,16.33
2018-03-28T15:10:45.842Z,38.50
2018-03-28T15:13:12.312Z,27.30
2018-03-28T15:15:38.748Z,59.70
2018-03-28T15:18:05.118Z,64.20
2018-03-28T15:20:31.656Z,39.20
2018-03-28T15:22:58.114Z,15.03
2018-03-28T15:25:24.670Z,28.70
2018-03-28T15:27:51.201Z,82.40
2018-03-28T15:30:17.655Z,50.87
2018-03-28T15:32:44.126Z,28.47
2018-03-28T15:35:10.549Z,21.50
2018-03-28T15:37:36.986Z,21.33
2018-03-28T15:40:03.473Z,24.33
2018-03-28T15:42:29.998Z,26.90
2018-03-28T15:44:56.847Z,22.53
2018-03-28T15:47:23.469Z,18.80
2018-03-28T15:49:49.833Z,19.40
2018-03-28T15:52:16.280Z,27.00
2018-03-28T15:54:42.714Z,19.30
2018-03-28T15:57:09.108Z,21.63
2018-03-28T15:59:35.526Z,24.40
2018-03-28T16:02:01.933Z,24.30
2018-03-28T16:04:28.369Z,25.30
2018-03-28T16:06:54.754Z,28.70
2018-03-28T16:09:21.133Z,21.83
2018-03-28T16:11:47.605Z,19.63
2018-03-28T16:14:13.993Z,20.60
2018-03-28T16:16:40.429Z,18.73
2018-03-28T16:19:06.965Z,20.73
2018-03-28T16:21:33.361Z,20.70
2018-03-28T16:23:59.735Z,23.30
2018-03-28T16:26:26.167Z,23.97
2018-03-28T16:28:52.559Z,24.10
2018-03-28T16:31:18.973Z,20.87
2018-03-28T16:33:45.393Z,21.97
2018-03-28T16:36:11.819Z,23.13
2018-03-28T16:38:38.261Z,25.10
2018-03-28T16:41:04.746Z,25.50
2018-03-28T16:43:31.149Z,24.40
2018-03-28T16:45:57.610Z,22.77
2018-03-28T16:48:24.118Z,22.90
2018-03-28T16:50:50.602Z,24.90
2018-03-28T16:53:16.989Z,21.97
2018-03-28T16:55:43.429Z,20.47
2018-03-28T16:58:09.848Z,18.67
2018-03-28T17:00:36.297Z,20.50
2018-03-28T17:03:02.765Z,26.50
2018-03-28T17:05:29.145Z,31.90
2018-03-28T17:07:55.554Z,30.87
2018-03-28T17:10:22.014Z,30.50
2018-03-28T17:12:48.518Z,27.33
2018-03-28T17:15:14.970Z,46.50
2018-03-28T17:17:41.423Z,51.67
2018-03-28T17:20:07.865Z,53.50
2018-03-28T17:22:34.242Z,56.70
2018-03-28T17:25:00.634Z,56.47
2018-03-28T17:27:27.123Z,53.70
2018-03-28T17:29:53.565Z,52.07
2018-03-28T17:32:19.958Z,54.47
2018-03-28T17:34:46.401Z,56.63
2018-03-28T17:37:12.800Z,55.23
2018-03-28T17:39:39.222Z,78.83
2018-03-28T17:42:05.654Z,83.83
2018-03-28T17:44:32.998Z,79.57
2018-03-28T17:46:59.442Z,80.30
2018-03-28T17:49:25.797Z,82.93
2018-03-28T17:51:52.318Z,78.53
2018-03-28T17:54:18.694Z,57.03
2018-03-28T17:56:45.061Z,43.00
2018-03-28T17:59:11.494Z,41.23
2018-03-28T18:01:37.902Z,36.57
2018-03-28T18:04:04.381Z,37.90
2018-03-28T18:06:30.795Z,36.97
2018-03-28T18:08:57.390Z,41.13
2018-03-28T18:11:23.766Z,43.07
2018-03-28T18:13:50.253Z,46.50
2018-03-28T18:16:17.162Z,59.80
2018-03-28T18:18:44.777Z,65.50
2018-03-28T18:21:11.150Z,78.03
2018-03-28T18:23:37.559Z,91.20
2018-03-28T18:26:04.049Z,97.73
2018-03-28T18:28:30.567Z,98.97
2018-03-28T18:30:57.025Z,99.03
2018-03-28T18:33:23.443Z,102.30
2018-03-28T18:35:49.820Z,109.73
2018-03-28T18:38:16.351Z,114.97
2018-03-28T18:40:42.748Z,117.37
2018-03-28T18:43:09.174Z,113.47
2018-03-28T18:45:35.595Z,119.30
2018-03-28T18:48:01.995Z,103.10
2018-03-28T18:50:28.559Z,96.30
2018-03-28T18:52:54.979Z,91.17
2018-03-28T18:55:21.641Z,98.20
2018-03-28T18:57:48.078Z,108.03
2018-03-28T19:00:14.549Z,107.83
2018-03-28T19:02:40.945Z,107.20
2018-03-28T19:05:07.333Z,105.87
2018-03-28T19:07:33.841Z,106.30
2018-03-28T19:10:00.246Z,108.57
2018-03-28T19:12:26.691Z,101.43
2018-03-28T19:14:53.165Z,108.60
2018-03-28T19:17:19.616Z,108.33
2018-03-28T19:19:46.129Z,107.77
2018-03-28T19:22:12.545Z,99.57
2018-03-28T19:24:38.993Z,110.53
2018-03-28T19:27:05.428Z,104.57
2018-03-28T19:29:31.909Z,97.60
2018-03-28T19:31:58.341Z,97.43
2018-03-28T19:34:24.766Z,96.37
2018-03-28T19:36:51.213Z,107.73
2018-03-28T19:39:17.637Z,101.80
2018-03-28T19:41:44.051Z,97.60
2018-03-28T19:44:11.135Z,104.20
2018-03-28T19:46:37.552Z,100.80
2018-03-28T19:49:03.953Z,105.67
2018-03-28T19:51:30.376Z,102.90
2018-03-28T19:53:56.793Z,102.87
2018-03-28T19:56:23.217Z,98.20
2018-03-28T19:58:49.661Z,104.23
2018-03-28T20:01:16.050Z,115.00
2018-03-28T20:03:42.500Z,105.90
2018-03-28T20:06:08.984Z,110.23
2018-03-28T20:08:35.357Z,114.83
2018-03-28T20:11:02.576Z,115.77
2018-03-28T20:13:29.857Z,110.83
2018-03-28T20:15:57.438Z,106.60
2018-03-28T20:18:24.062Z,99.23
2018-03-28T20:20:50.426Z,112.63
2018-03-28T20:23:16.964Z,108.17
2018-03-28T20:25:43.458Z,107.47
2018-03-28T20:28:09.873Z,105.37
2018-03-28T20:30:36.253Z,103.27
2018-03-28T20:33:02.834Z,108.57
2018-03-28T20:35:29.307Z,93.47
2018-03-28T20:37:55.705Z,100.40
2018-03-28T20:40:22.186Z,96.63
2018-03-28T20:42:48.609Z,88.17
2018-03-28T20:45:15.094Z,91.43
2018-03-28T20:47:41.457Z,96.73
2018-03-28T20:50:07.902Z,88.50
2018-03-28T20:52:34.294Z,83.53
2018-03-28T20:55:00.694Z,72.87
2018-03-28T20:57:27.103Z,62.37
2018-03-28T20:59:53.580Z,70.07
2018-03-28T21:02:19.990Z,82.37
2018-03-28T21:04:46.538Z,76.80
2018-03-28T21:07:12.921Z,80.80
2018-03-28T21:09:39.323Z,84.77
2018-03-28T21:12:05.694Z,78.40
2018-03-28T21:14:32.106Z,68.37
2018-03-28T21:16:58.481Z,61.67
2018-03-28T21:19:24.843Z,56.40
2018-03-28T21:21:51.416Z,52.20
2018-03-28T21:24:17.789Z,40.37
2018-03-28T21:26:44.153Z,43.47
2018-03-28T21:29:10.518Z,44.33
2018-03-28T21:31:36.913Z,41.87
2018-03-28T21:34:03.306Z,40.30
2018-03-28T21:36:29.775Z,46.03
2018-03-28T21:38:56.349Z,44.37
2018-03-28T21:41:22.722Z,49.60
2018-03-28T21:43:49.104Z,45.50
2018-03-28T21:46:15.473Z,46.83
2018-03-28T21:48:41.838Z,48.53
2018-03-28T21:51:08.213Z,48.37
2018-03-28T21:53:34.601Z,42.33
2018-03-28T21:56:00.965Z,46.57
2018-03-28T21:58:27.330Z,39.57
2018-03-28T22:00:53.720Z,42.47
2018-03-28T22:03:20.117Z,46.47
2018-03-28T22:05:46.494Z,41.57
2018-03-28T22:08:12.877Z,41.27
2018-03-28T22:10:39.301Z,39.00
2018-03-28T22:13:05.665Z,39.03
2018-03-28T22:15:32.017Z,38.73
2018-03-28T22:17:58.381Z,39.03
2018-03-28T22:20:24.749Z,36.50
2018-03-28T22:22:51.133Z,38.13
2018-03-28T22:25:17.546Z,35.67
2018-03-28T22:27:44.238Z,36.47
2018-03-28T22:30:10.748Z,35.43
2018-03-28T22:32:37.206Z,34.13
2018-03-28T22:35:03.585Z,31.57
2018-03-28T22:37:30.008Z,29.63
2018-03-28T22:39:56.445Z,29.47
2018-03-28T22:42:22.801Z,29.87
2018-03-28T22:44:49.156Z,30.03
2018-03-28T22:47:15.560Z,25.57
2018-03-28T22:49:41.906Z,24.97
2018-03-28T22:52:08.285Z,25.77
2018-03-28T22:54:34.634Z,27.17
2018-03-28T22:57:01.010Z,25.00
2018-03-28T22:59:27.386Z,29.67
2018-03-28T23:01:53.750Z,25.60
2018-03-28T23:04:20.122Z,28.23
2018-03-28T23:06:46.490Z,27.90
2018-03-28T23:09:12.845Z,28.63
2018-03-28T23:11:39.239Z,30.97
2018-03-28T23:14:05.604Z,30.30
2018-03-28T23:16:32.015Z,29.57
2018-03-28T23:18:58.378Z,33.67
2018-03-28T23:21:24.756Z,27.43
2018-03-28T23:23:51.132Z,27.37
2018-03-28T23:26:17.506Z,29.67
2018-03-28T23:28:43.862Z,30.90
2018-03-28T23:31:10.295Z,33.93
2018-03-28T23:33:36.698Z,32.13
2018-03-28T23:36:03.106Z,38.80
2018-03-28T23:38:29.513Z,28.40
2018-03-28T23:40:56.005Z,33.50
2018-03-28T23:43:22.368Z,27.40
2018-03-28T23:45:48.877Z,29.53
2018-03-28T23:48:15.246Z,30.17
2018-03-28T23:50:41.777Z,31.40
2018-03-28T23:53:08.198Z,30.73
2018-03-28T23:55:34.582Z,31.90
2018-03-28T23:58:00.960Z,32.20
